»·PEaware :: N973DM KOXR-KWJF

N973DM :: KOXR-KWJF

FLIGHT INFORMATION

Flight Status: Arrived
Operator: Privately registered:
United States
More flights under this callsign
Pilot: Anonymous 1328 (1328)
Aircraft: CIRRUS SR-20
(SR20)
More flights by this aircraft type
Origin: KOXR Oxnard
United States
Destination: KWJF Gen Fox
United States
More flights between these airports :: More routes between these airports
Route: FIM LHS
File this flight plan on PilotEdge
Remarks: REQUEST VOR-B VIA LHS IAF. IFR TO MIN
Altitude:
(Current/Filed)
11,000ft
Speed:
(Current/Filed)
150kts
Departed: 10-Nov-13 07:02 PM
Arrived: 10-Nov-13 08:09 PM
Distance/Time
Traveled:
59nm/1:07
Distance/Time
To Go:
Arrived

Flight Plot

Page will automatically refresh every two minutes.


Map Options




Map Legend


Flown Route
Filed Route
Departure Airport
Arrival Airport
Navaid (VOR, NDB)
Fix

Horizontal Profiles

Position Reports

Time Latitude Longitude Heading Altitude Ground
Speed
10-Nov-13 18:51 34.199282 -119.214780 359 45ft 0kts
10-Nov-13 18:52 34.199282 -119.214780 359 45ft 0kts
10-Nov-13 18:53 34.199282 -119.214780 359 45ft 0kts
10-Nov-13 18:54 34.199282 -119.214780 359 45ft 0kts
10-Nov-13 18:55 34.199282 -119.214780 359 45ft 0kts
10-Nov-13 18:56 34.199282 -119.214780 359 45ft 0kts
10-Nov-13 18:57 34.199282 -119.214780 359 45ft 0kts
10-Nov-13 18:58 34.199282 -119.214780 359 45ft 0kts
10-Nov-13 18:59 34.199828 -119.215831 268 45ft 14kts
10-Nov-13 19:00 34.199992 -119.216866 112 45ft 2kts
10-Nov-13 19:01 34.199793 -119.205402 90 45ft 53kts
10-Nov-13 19:02 34.199933 -119.197677 37 45ft 0kts
10-Nov-13 19:03 34.199933 -119.197677 37 45ft 0kts
10-Nov-13 19:04 34.199933 -119.197677 37 45ft 0kts
10-Nov-13 19:05 34.200844 -119.207494 269 52ft 87kts
10-Nov-13 19:06 34.200574 -119.240086 272 626ft 100kts
10-Nov-13 19:07 34.199986 -119.275827 266 1160ft 111kts
10-Nov-13 19:08 34.197317 -119.311752 264 1775ft 110kts
10-Nov-13 19:09 34.195265 -119.349332 268 2196ft 124kts
10-Nov-13 19:10 34.199647 -119.385200 326 2844ft 112kts
10-Nov-13 19:11 34.216232 -119.364375 81 3355ft 111kts
10-Nov-13 19:12 34.224075 -119.328516 71 3906ft 106kts
10-Nov-13 19:13 34.233945 -119.294902 70 4403ft 106kts
10-Nov-13 19:14 34.243569 -119.260955 70 4869ft 107kts
10-Nov-13 19:15 34.253276 -119.226687 70 5312ft 108kts
10-Nov-13 19:16 34.263051 -119.192149 70 5734ft 108kts
10-Nov-13 19:17 34.272832 -119.157558 70 6134ft 109kts
10-Nov-13 19:18 34.282698 -119.122634 70 6515ft 110kts
10-Nov-13 19:19 34.292279 -119.088653 70 6954ft 103kts
10-Nov-13 19:20 34.301622 -119.055454 70 7319ft 104kts
10-Nov-13 19:21 34.311022 -119.022025 70 7667ft 105kts
10-Nov-13 19:22 34.320439 -118.988505 70 7999ft 105kts
10-Nov-13 19:23 34.329915 -118.954746 70 8316ft 106kts
10-Nov-13 19:24 34.339451 -118.920744 70 8620ft 106kts
10-Nov-13 19:25 34.349721 -118.887064 68 8905ft 107kts
10-Nov-13 19:26 34.365672 -118.857845 39 9170ft 107kts
10-Nov-13 19:27 34.385497 -118.831137 52 9483ft 103kts
10-Nov-13 19:28 34.402605 -118.802865 54 9741ft 104kts
10-Nov-13 19:29 34.419427 -118.774196 54 9990ft 104kts
10-Nov-13 19:30 34.436251 -118.745369 54 10237ft 104kts
10-Nov-13 19:31 34.450082 -118.721639 54 10441ft 103kts
10-Nov-13 19:32 34.466702 -118.693100 54 10664ft 103kts
10-Nov-13 19:33 34.483404 -118.664396 54 10866ft 105kts
10-Nov-13 19:34 34.501593 -118.633118 54 10884ft 121kts
10-Nov-13 19:35 34.522003 -118.597972 54 10881ft 131kts
10-Nov-13 19:36 34.543399 -118.561095 54 10880ft 135kts
10-Nov-13 19:37 34.565168 -118.523556 54 10880ft 137kts
10-Nov-13 19:38 34.582474 -118.483559 95 10882ft 137kts
10-Nov-13 19:39 34.577520 -118.432613 96 10285ft 168kts
10-Nov-13 19:40 34.571687 -118.373410 96 9498ft 182kts
10-Nov-13 19:41 34.565607 -118.311893 96 8701ft 184kts
10-Nov-13 19:42 34.559485 -118.250146 96 7904ft 184kts
10-Nov-13 19:43 34.553828 -118.193143 96 7877ft 159kts
10-Nov-13 19:44 34.548670 -118.141352 96 7878ft 150kts
10-Nov-13 19:45 34.545264 -118.091094 93 7879ft 148kts
10-Nov-13 19:46 34.542445 -118.041315 93 7879ft 147kts
10-Nov-13 19:47 34.539626 -117.991782 93 7879ft 146kts
10-Nov-13 19:48 34.536796 -117.942284 93 7879ft 146kts
10-Nov-13 19:49 34.533999 -117.892922 93 7879ft 146kts
10-Nov-13 19:50 34.531550 -117.843380 93 7879ft 146kts
10-Nov-13 19:51 34.529090 -117.793849 93 7879ft 146kts
10-Nov-13 19:52 34.530831 -117.745590 45 7877ft 146kts
10-Nov-13 19:53 34.569110 -117.750113 350 7880ft 145kts
10-Nov-13 19:54 34.611163 -117.756683 353 7060ft 157kts
10-Nov-13 19:55 34.654614 -117.762374 354 5974ft 151kts
10-Nov-13 19:56 34.676510 -117.798619 293 5492ft 142kts
10-Nov-13 19:57 34.692593 -117.843637 293 4798ft 147kts
10-Nov-13 19:58 34.708330 -117.887865 293 4550ft 125kts
10-Nov-13 19:59 34.719752 -117.919998 293 5346ft 93kts
10-Nov-13 20:00 34.729340 -117.949835 277 5803ft 95kts
10-Nov-13 20:01 34.733120 -117.987183 277 5887ft 128kts
10-Nov-13 20:02 34.737893 -118.033840 277 5223ft 141kts
10-Nov-13 20:03 34.742446 -118.078585 277 4467ft 125kts
10-Nov-13 20:04 34.746523 -118.117835 277 3847ft 111kts
10-Nov-13 20:05 34.746361 -118.154746 266 3233ft 108kts
10-Nov-13 20:06 34.745423 -118.189349 277 2621ft 97kts
10-Nov-13 20:07 34.742007 -118.215099 251 2353ft 57kts
10-Nov-13 20:08 34.739269 -118.217722 116 2353ft 0kts

Navigation Log

Ident Type
Flight plan parsing failed, navigation log unavailable